This is the latest recevied weather packets stored in our database for station/object 9M2ZEE-0. If no packets are shown the sender has not sent any weather packets the latest 10 day(s).
| Time | Temp. | Humidity | Pressure | Rain* | Wind** | Luminosity | Snow |
|---|---|---|---|---|---|---|---|
| 1788423316 | 40.56° C | 60% | 1007 hPa | - | - | 0 W/m² | - |
| 1788419669 | 37.78° C | 76% | 1007 hPa | - | - | 0 W/m² | - |
| 1788417846 | 38.33° C | 73% | 1008 hPa | - | - | 0 W/m² | - |
| 1788416022 | 38.33° C | 78% | 1008 hPa | - | - | 0 W/m² | - |
| 1788412374 | 36.67° C | 86% | 1010 hPa | - | - | 0 W/m² | - |
| 1788408728 | 35.56° C | 93% | 1011 hPa | - | - | 0 W/m² | - |
| 1788406904 | 34.44° C | 99% | 1011 hPa | - | - | 0 W/m² | - |
| 1788405081 | 33.89° C | 99% | 1011 hPa | - | - | 0 W/m² | - |
| 1788332176 | 37.78° C | 74% | 1008 hPa | - | - | 0 W/m² | - |
| 1788330353 | 37.78° C | 75% | 1009 hPa | - | - | 0 W/m² | - |
| 1788328530 | 37.78° C | 77% | 1009 hPa | - | - | 0 W/m² | - |
| 1788326708 | 37.22° C | 84% | 1010 hPa | - | - | 0 W/m² | - |
| 1788323063 | 35.56° C | 93% | 1011 hPa | - | - | 0 W/m² | - |
| 1788301188 | 27.78° C | 99% | 1010 hPa | - | - | 0 W/m² | - |
| 1788297543 | 27.22° C | 99% | 1010 hPa | - | - | 0 W/m² | - |
| 1788292076 | 27.78° C | 99% | 1010 hPa | - | - | 0 W/m² | - |
| 1788290252 | 28.33° C | 99% | 1010 hPa | - | - | 0 W/m² | - |
| 1788288430 | 28.33° C | 99% | 1011 hPa | - | - | 0 W/m² | - |
| 1788282962 | 27.78° C | 99% | 1011 hPa | - | - | 0 W/m² | - |
| 1788281140 | 27.78° C | 99% | 1012 hPa | - | - | 0 W/m² | - |
| 1788279317 | 28.33° C | 99% | 1012 hPa | - | - | 0 W/m² | - |
| 1788277495 | 28.33° C | 99% | 1012 hPa | - | - | 0 W/m² | - |
| 1788275672 | 28.89° C | 99% | 1012 hPa | - | - | 0 W/m² | - |
| 1788273850 | 28.89° C | 99% | 1012 hPa | - | - | 0 W/m² | - |
| 1788272028 | 28.89° C | 99% | 1011 hPa | - | - | 0 W/m² | - |
* Rain since midnight (hover to see other rain measurements)
** Current wind speed in m/s (hover to see current wind gust speed)